European Seaway — MPDG3 — position and weather

sailwx.info

Track history (hours):
 
Tides and Currents Weather Stations Pressure Air Temp Water Temp Dewpoint Dewpoint Depression Visibility Wind Speed Wind Dir Waves Ship Positions

European Seaway

Operator: P & O Ferries

Last reported at 2018-Jul-22 07:00 UTC. Time now 2018-Jul-22 06:56 UTC.
Position N 51°07' E 001°20'.

Length 180 m; draft 5.5 m.

Type: Passenger vessel. MMSI: 232001040.

Date/timePositionNaut miles runAvg speedWind from/ knotsBaromVisibWave heightAir tempDewpointWater temp
2018-Jul-22 07:00N 51°07' E 001°20'1 1.6
2018-Jul-22 06:31N 51°07' E 001°20'0 0.0
2018-Jul-22 06:00N 51°07' E 001°20'1 1.7
2018-Jul-22 05:30N 51°07' E 001°21'1019.3
2018-Jul-22 05:00N 51°03' E 001°35'918.2
2018-Jul-22 04:31N 50°58' E 001°47'2 4.7
2018-Jul-22 04:01N 50°58' E 001°51'0 0.0
2018-Jul-22 03:31N 50°58' E 001°51'0 0.0
2018-Jul-22 03:01N 50°58' E 001°51'0 0.0
2018-Jul-22 02:31N 50°58' E 001°51'1 1.1
2018-Jul-22 02:01N 50°58' E 001°52'0 0.2
2018-Jul-22 01:27N 50°58' E 001°52'0 0.0
2018-Jul-22 00:54N 50°58' E 001°52'0 0.0
2018-Jul-22 00:27N 50°58' E 001°52'0 0.0
2018-Jul-22 00:00N 50°58' E 001°52'0 0.0
2018-Jul-21 23:27N 50°58' E 001°52'0 0.0
2018-Jul-21 23:00N 50°58' E 001°52'0 0.0
2018-Jul-21 22:30N 50°58' E 001°52'0 0.0
2018-Jul-21 22:00N 50°58' E 001°52'0 0.0
2018-Jul-21 21:24N 50°58' E 001°52'0 0.0
2018-Jul-21 20:57N 50°58' E 001°52'0 0.0
2018-Jul-21 20:30N 50°58' E 001°52'0 0.0
2018-Jul-21 20:00N 50°58' E 001°52'1 1.4
2018-Jul-21 19:30N 50°58' E 001°51'0 0.0
2018-Jul-21 19:00N 50°58' E 001°51'5 9.7
2018-Jul-21 18:31N 50°58' E 001°43'1019.6
2018-Jul-21 18:01N 51°03' E 001°30'714.7
2018-Jul-21 17:30N 51°07' E 001°20'0 0.0
2018-Jul-21 16:50N 51°07' E 001°20'0 1.0
2018-Jul-21 16:30N 51°07' E 001°20'611.6
2018-Jul-21 16:00N 51°05' E 001°29'1019.6
2018-Jul-21 15:30N 50°60' E 001°42'713.1
2018-Jul-21 15:00N 50°58' E 001°52'0 0.0
2018-Jul-21 14:30N 50°58' E 001°52'1212.3
2018-Jul-21 13:30N 51°00' E 001°32'918.4
2018-Jul-21 13:00N 51°07' E 001°22'1 1.4
2018-Jul-21 11:59N 51°07' E 001°20'0 0.8
2018-Jul-21 11:30N 51°07' E 001°20'2 4.4
2018-Jul-21 11:01N 51°06' E 001°23'816.2
2018-Jul-21 10:31N 51°03' E 001°35'917.6
2018-Jul-21 10:01N 50°58' E 001°46'4 7.2
2018-Jul-21 09:30N 50°58' E 001°52'0 0.0
2018-Jul-21 09:00N 50°58' E 001°52'2 4.0
2018-Jul-21 08:30N 50°58' E 001°48'918.2
2018-Jul-21 08:00N 51°01' E 001°35'1018.8
2018-Jul-21 07:30N 51°07' E 001°23'2 3.3
2018-Jul-21 06:57N 51°07' E 001°20'0 0.1
2018-Jul-21 06:29N 51°07' E 001°20'0 0.3
2018-Jul-21 06:01N 51°07' E 001°20'713.2
2018-Jul-21 05:31N 51°06' E 001°30'815.1
2018-Jul-21 05:01N 51°01' E 001°39'612.8
2018-Jul-21 04:30N 50°58' E 001°49'2 3.9
2018-Jul-21 04:00N 50°58' E 001°52'0 0.0
2018-Jul-21 03:31N 50°58' E 001°52'0 0.0
2018-Jul-21 03:00N 50°58' E 001°52'0 0.0
2018-Jul-21 02:30N 50°58' E 001°52'0 0.0
2018-Jul-21 02:00N 50°58' E 001°52'0 0.0
2018-Jul-21 01:30N 50°58' E 001°52'0 0.0
2018-Jul-21 01:01N 50°58' E 001°52'0 0.0
2018-Jul-21 00:30N 50°58' E 001°52'1 2.1
2018-Jul-21 00:01N 50°58' E 001°50'917.5
2018-Jul-20 23:31N 50°60' E 001°36'1019.7
2018-Jul-20 23:01N 51°05' E 001°23'3 5.2
2018-Jul-20 22:27N 51°07' E 001°20'0 0.0
2018-Jul-20 21:58N 51°07' E 001°20'2 3.8
2018-Jul-20 21:31N 51°07' E 001°23'1019.5
2018-Jul-20 21:01N 51°02' E 001°36'918.2
2018-Jul-20 20:31N 50°58' E 001°49'1 2.8
2018-Jul-20 20:01N 50°58' E 001°52'0 0.0
2018-Jul-20 19:30N 50°58' E 001°52'0 0.0
2018-Jul-20 19:00N 50°58' E 001°52'1 1.5
2018-Jul-20 18:31N 50°58' E 001°51'611.5
2018-Jul-20 18:00N 50°58' E 001°41'1019.5
2018-Jul-20 17:30N 51°04' E 001°29'612.2
2018-Jul-20 16:59N 51°07' E 001°20'0 0.0
2018-Jul-20 16:30N 51°07' E 001°20'2 3.2
2018-Jul-20 16:00N 51°07' E 001°23'612.5
2018-Jul-20 15:30N 51°05' E 001°32'918.3
2018-Jul-20 15:00N 50°59' E 001°43'510.0
2018-Jul-20 14:30N 50°58' E 001°51'0 0.0
2018-Jul-20 14:00N 50°58' E 001°51'0 0.0
2018-Jul-20 13:30N 50°58' E 001°51'4 7.8
2018-Jul-20 13:00N 50°58' E 001°45'917.9
2018-Jul-20 12:30N 51°02' E 001°32'917.6
2018-Jul-20 12:01N 51°06' E 001°20'1 1.5
2018-Jul-20 11:20N 51°07' E 001°20'0 0.2
2018-Jul-20 10:55N 51°07' E 001°20'513.2
2018-Jul-20 10:30N 51°06' E 001°28'918.7
2018-Jul-20 10:00N 50°60' E 001°40'714.4
2018-Jul-20 09:30N 50°58' E 001°51'0 0.1
2018-Jul-20 09:00N 50°58' E 001°51'2 4.3
2018-Jul-20 08:30N 50°58' E 001°48'816.8
2018-Jul-20 08:01N 51°00' E 001°35'918.7
2018-Jul-20 07:31N 51°06' E 001°23'2 4.7
2018-Jul-20 06:59N 51°07' E 001°20'0 0.4
2018-Jul-20 06:30N 51°07' E 001°20'3 5.9
2018-Jul-20 06:01N 51°07' E 001°25'510.8
2018-Jul-20 05:30N 51°04' E 001°32'714.4
2018-Jul-20 05:00N 50°60' E 001°41'612.2
2018-Jul-20 04:30N 50°58' E 001°51'1 1.2
2018-Jul-20 04:01N 50°58' E 001°52'0 0.0
2018-Jul-20 03:30N 50°58' E 001°52'0 0.0
2018-Jul-20 03:00N 50°58' E 001°52'0 0.0
2018-Jul-20 02:30N 50°58' E 001°52'0 0.0
2018-Jul-20 02:00N 50°58' E 001°52'0 0.0
2018-Jul-20 01:30N 50°58' E 001°52'0 0.0
2018-Jul-20 01:00N 50°58' E 001°52'0 0.0
2018-Jul-20 00:30N 50°58' E 001°52'3 6.3
2018-Jul-20 00:00N 50°58' E 001°47'815.1
2018-Jul-19 23:30N 51°01' E 001°35'1019.2
2018-Jul-19 23:00N 51°06' E 001°22'2 4.4
2018-Jul-19 22:30N 51°07' E 001°20'0 0.6
2018-Jul-19 22:00N 51°07' E 001°20'2 5.0
2018-Jul-19 21:31N 51°07' E 001°24'815.4
2018-Jul-19 21:00N 51°03' E 001°34'918.8
2018-Jul-19 20:30N 50°58' E 001°48'2 4.9
2018-Jul-19 20:01N 50°58' E 001°52'0 0.0
2018-Jul-19 19:31N 50°58' E 001°52'1 1.8
2018-Jul-19 19:00N 50°58' E 001°50'612.0
2018-Jul-19 18:30N 50°58' E 001°41'918.0
2018-Jul-19 18:00N 51°04' E 001°29'713.6
2018-Jul-19 17:30N 51°07' E 001°20'0 0.0
2018-Jul-19 16:59N 51°07' E 001°20'0 0.6
2018-Jul-19 16:29N 51°07' E 001°20'4 9.4
2018-Jul-19 16:00N 51°06' E 001°27'1019.4
2018-Jul-19 15:30N 51°00' E 001°39'815.7
2018-Jul-19 15:00N 50°58' E 001°51'0 0.2
2018-Jul-19 14:00N 50°58' E 001°52'611.3
2018-Jul-19 13:30N 50°58' E 001°43'918.2
2018-Jul-19 13:00N 51°03' E 001°30'815.8
2018-Jul-19 12:30N 51°07' E 001°20'0 0.0
2018-Jul-19 11:59N 51°07' E 001°20'0 0.6
2018-Jul-19 11:29N 51°07' E 001°20'3 5.6
2018-Jul-19 11:00N 51°07' E 001°24'815.8
2018-Jul-19 10:30N 51°03' E 001°35'918.5
2018-Jul-19 10:00N 50°58' E 001°47'3 5.3
2018-Jul-19 09:30N 50°58' E 001°52'0 0.0
2018-Jul-19 09:00N 50°58' E 001°52'3 6.7
2018-Jul-19 08:31N 50°58' E 001°46'917.6
2018-Jul-19 08:01N 51°02' E 001°34'918.9
2018-Jul-19 07:31N 51°07' E 001°21'1 1.8
2018-Jul-19 07:00N 51°07' E 001°20'0 0.2
2018-Jul-19 06:30N 51°07' E 001°20'3 6.9
2018-Jul-19 06:00N 51°07' E 001°25'613.0
2018-Jul-19 05:30N 51°04' E 001°35'815.0
2018-Jul-19 05:00N 50°59' E 001°44'5 9.5
2018-Jul-19 04:30N 50°58' E 001°51'0 0.0
2018-Jul-19 03:58N 50°58' E 001°51'0 0.0
2018-Jul-19 03:30N 50°58' E 001°51'0 0.0
2018-Jul-19 03:01N 50°58' E 001°51'0 0.0
2018-Jul-19 02:30N 50°58' E 001°51'0 0.0
2018-Jul-19 02:00N 50°58' E 001°51'0 0.0
2018-Jul-19 01:30N 50°58' E 001°51'0 0.0
2018-Jul-19 01:00N 50°58' E 001°51'0 0.0
2018-Jul-19 00:30N 50°58' E 001°51'1 1.1
2018-Jul-19 00:00N 50°58' E 001°50'714.2
2018-Jul-18 23:30N 50°59' E 001°39'816.7
2018-Jul-18 23:01N 51°04' E 001°28'612.4
2018-Jul-18 22:30N 51°07' E 001°20'0 0.0
2018-Jul-18 21:56N 51°07' E 001°20'1 2.8
2018-Jul-18 21:30N 51°07' E 001°22'1019.4
2018-Jul-18 21:00N 51°02' E 001°35'1019.2
2018-Jul-18 20:30N 50°58' E 001°49'2 3.1
2018-Jul-18 20:01N 50°58' E 001°51'0 0.0
2018-Jul-18 19:30N 50°58' E 001°51'0 0.0
2018-Jul-18 19:00N 50°58' E 001°51'2 4.2
2018-Jul-18 18:31N 50°58' E 001°48'5 9.5
2018-Jul-18 18:00N 50°59' E 001°41'1019.8
2018-Jul-18 17:30N 51°03' E 001°27'610.1
2018-Jul-18 16:56N 51°07' E 001°20'0 0.0
2018-Jul-18 16:26N 51°07' E 001°20'1 1.5
2018-Jul-18 16:00N 51°07' E 001°21'816.8
2018-Jul-18 15:30N 51°04' E 001°33'816.8
2018-Jul-18 15:00N 50°59' E 001°44'4 8.9
2018-Jul-18 14:30N 50°58' E 001°51'0 0.1
2018-Jul-18 13:30N 50°58' E 001°51'817.0
2018-Jul-18 13:01N 51°00' E 001°38'918.7
2018-Jul-18 12:30N 51°06' E 001°26'4 7.5
2018-Jul-18 11:59N 51°07' E 001°20'0 0.0
2018-Jul-18 11:30N 51°07' E 001°20'1111.0
2018-Jul-18 10:30N 51°03' E 001°36'917.7
2018-Jul-18 10:01N 50°58' E 001°48'3 5.1
2018-Jul-18 09:30N 50°58' E 001°52'0 0.0
2018-Jul-18 09:00N 50°58' E 001°52'2 3.6
2018-Jul-18 08:31N 50°58' E 001°49'816.7
2018-Jul-18 08:00N 51°00' E 001°36'918.7
2018-Jul-18 07:30N 51°06' E 001°24'3 5.7
2018-Jul-18 06:58N 51°07' E 001°20'0 0.3
2018-Jul-18 06:30N 51°07' E 001°20'2 4.8
2018-Jul-18 06:01N 51°07' E 001°24'611.6
2018-Jul-18 05:31N 51°04' E 001°31'612.6
2018-Jul-18 05:01N 51°01' E 001°40'612.1
2018-Jul-18 04:30N 50°58' E 001°49'2 3.4
2018-Jul-18 03:59N 50°58' E 001°52'0 0.0
2018-Jul-18 03:26N 50°58' E 001°52'0 0.0
2018-Jul-18 02:59N 50°58' E 001°52'0 0.0
2018-Jul-18 02:29N 50°58' E 001°52'0 0.0
2018-Jul-18 01:59N 50°58' E 001°52'0 0.0
2018-Jul-18 01:29N 50°58' E 001°52'0 0.0
2018-Jul-18 01:00N 50°58' E 001°52'1 1.5
2018-Jul-18 00:31N 50°58' E 001°51'612.6
2018-Jul-18 00:00N 50°58' E 001°40'918.8
2018-Jul-17 23:31N 51°04' E 001°28'612.6
2018-Jul-17 23:00N 51°07' E 001°20'0 0.0
2018-Jul-17 22:29N 51°07' E 001°20'0 0.6
2018-Jul-17 22:00N 51°07' E 001°20'510.8
2018-Jul-17 21:30N 51°05' E 001°28'816.2
2018-Jul-17 21:00N 51°01' E 001°39'816.1
2018-Jul-17 20:30N 50°58' E 001°51'1 1.0
2018-Jul-17 20:00N 50°58' E 001°52'0 0.0
2018-Jul-17 19:30N 50°58' E 001°52'0 0.0
2018-Jul-17 19:00N 50°58' E 001°52'2 3.7
2018-Jul-17 18:30N 50°58' E 001°49'918.5
2018-Jul-17 18:00N 51°00' E 001°35'918.7
2018-Jul-17 17:30N 51°06' E 001°23'2 3.2
2018-Jul-17 16:49N 51°07' E 001°20'0 0.1
2018-Jul-17 16:29N 51°07' E 001°20'4 7.8
2018-Jul-17 16:00N 51°07' E 001°26'612.8
2018-Jul-17 15:30N 51°03' E 001°34'917.7
2018-Jul-17 15:00N 50°58' E 001°46'3 6.5
2018-Jul-17 14:31N 50°58' E 001°51'0 0.0
2018-Jul-17 13:57N 50°58' E 001°51'0 0.0
2018-Jul-17 13:30N 50°58' E 001°51'713.4
2018-Jul-17 13:00N 50°59' E 001°40'1019.4
2018-Jul-17 12:30N 51°05' E 001°28'610.4
2018-Jul-17 11:57N 51°07' E 001°20'0 0.0
2018-Jul-17 11:27N 51°07' E 001°20'0 0.9
2018-Jul-17 11:00N 51°07' E 001°21'918.3
2018-Jul-17 10:30N 51°04' E 001°34'1019.3
2018-Jul-17 10:00N 50°58' E 001°46'3 6.8
2018-Jul-17 09:30N 50°58' E 001°52'0 0.0
2018-Jul-17 09:00N 50°58' E 001°52'2 4.4
2018-Jul-17 08:30N 50°58' E 001°48'917.4
2018-Jul-17 08:00N 51°01' E 001°35'1019.6
2018-Jul-17 07:30N 51°07' E 001°22'2 1.9
2018-Jul-17 06:38N 51°07' E 001°20'0 1.8
2018-Jul-17 06:30N 51°07' E 001°20'3 6.4
2018-Jul-17 06:00N 51°07' E 001°25'4 8.8
2018-Jul-17 05:31N 51°05' E 001°31'714.0
2018-Jul-17 05:00N 51°01' E 001°40'612.4
2018-Jul-17 04:30N 50°58' E 001°49'2 3.0
2018-Jul-17 04:00N 50°58' E 001°52'0 0.0
2018-Jul-17 03:30N 50°58' E 001°52'0 0.0
2018-Jul-17 03:00N 50°58' E 001°52'0 0.0
2018-Jul-17 02:30N 50°58' E 001°52'0 0.0
2018-Jul-17 02:00N 50°58' E 001°52'0 0.0
2018-Jul-17 01:21N 50°58' E 001°52'0 0.0
2018-Jul-17 01:00N 50°58' E 001°52'0 0.0
2018-Jul-17 00:27N 50°58' E 001°52'0 0.0
2018-Jul-16 23:30N 50°58' E 001°52'0 0.0
2018-Jul-16 23:00N 50°58' E 001°52'0 0.0
2018-Jul-16 22:30N 50°58' E 001°52'0 0.0
2018-Jul-16 22:00N 50°58' E 001°52'0 0.0
2018-Jul-16 21:30N 50°58' E 001°52'0 0.0
2018-Jul-16 21:00N 50°58' E 001°52'0 0.0
2018-Jul-16 20:30N 50°58' E 001°52'0 0.0
2018-Jul-16 20:00N 50°58' E 001°52'0 0.0
2018-Jul-16 19:30N 50°58' E 001°52'1 1.1
2018-Jul-16 19:00N 50°58' E 001°51'815.4
2018-Jul-16 18:30N 50°59' E 001°39'714.3
2018-Jul-16 18:01N 51°04' E 001°30'714.1
2018-Jul-16 17:30N 51°07' E 001°20'0 0.0
2018-Jul-16 16:57N 51°07' E 001°20'0 0.7
2018-Jul-16 16:30N 51°07' E 001°20'2 5.0
2018-Jul-16 16:00N 51°07' E 001°24'714.1
2018-Jul-16 15:31N 51°03' E 001°34'816.1
2018-Jul-16 15:01N 50°59' E 001°44'4 9.0
2018-Jul-16 14:30N 50°58' E 001°51'0 0.0
2018-Jul-16 14:00N 50°58' E 001°51'0 0.1
2018-Jul-16 13:30N 50°58' E 001°51'816.0
2018-Jul-16 13:01N 50°59' E 001°38'918.9
2018-Jul-16 12:31N 51°04' E 001°26'5 9.4
2018-Jul-16 12:00N 51°07' E 001°20'0 0.0
2018-Jul-16 11:27N 51°07' E 001°20'0 0.7
2018-Jul-16 11:00N 51°07' E 001°20'4 7.7
2018-Jul-16 10:31N 51°06' E 001°26'917.7
2018-Jul-16 10:01N 51°02' E 001°38'917.2
2018-Jul-16 09:30N 50°58' E 001°51'1 1.3
2018-Jul-16 08:58N 50°58' E 001°52'0 0.0
2018-Jul-16 08:28N 50°58' E 001°52'0 0.0
2018-Jul-16 07:58N 50°58' E 001°52'0 0.0
2018-Jul-16 07:22N 50°58' E 001°52'0 0.0
2018-Jul-16 06:58N 50°58' E 001°52'0 0.0
2018-Jul-16 06:28N 50°58' E 001°52'0 0.0
2018-Jul-16 05:58N 50°58' E 001°52'0 0.0
2018-Jul-16 05:25N 50°58' E 001°52'0 0.0
2018-Jul-16 04:55N 50°58' E 001°52'0 0.0
2018-Jul-16 04:28N 50°58' E 001°52'0 0.0
2018-Jul-16 03:58N 50°58' E 001°52'0 0.0
2018-Jul-16 03:31N 50°58' E 001°52'0 0.0
2018-Jul-16 02:58N 50°58' E 001°52'0 0.0
2018-Jul-16 02:31N 50°58' E 001°52'0 0.0
2018-Jul-16 02:01N 50°58' E 001°52'0 0.0
2018-Jul-16 01:28N 50°58' E 001°52'0 0.0
2018-Jul-16 01:01N 50°58' E 001°52'0 0.0
2018-Jul-16 00:31N 50°58' E 001°52'0 0.0
2018-Jul-15 23:58N 50°58' E 001°52'0 0.0
2018-Jul-15 23:28N 50°58' E 001°52'0 0.0
2018-Jul-15 22:58N 50°58' E 001°52'0 0.0
2018-Jul-15 22:25N 50°58' E 001°52'0 0.0
2018-Jul-15 22:01N 50°58' E 001°52'0 0.0
2018-Jul-15 21:25N 50°58' E 001°52'0 0.0
2018-Jul-15 21:01N 50°58' E 001°52'0 0.0
2018-Jul-15 20:28N 50°58' E 001°52'0 0.0
2018-Jul-15 20:00N 50°58' E 001°52'0 0.0
2018-Jul-15 19:30N 50°58' E 001°52'0 0.0
2018-Jul-15 19:00N 50°58' E 001°52'0 0.4
2018-Jul-15 18:30N 50°58' E 001°51'612.8
2018-Jul-15 18:00N 50°58' E 001°41'918.2
2018-Jul-15 17:30N 51°03' E 001°29'713.9
2018-Jul-15 17:00N 51°07' E 001°20'0 0.0
2018-Jul-15 16:28N 51°07' E 001°20'0 0.1
2018-Jul-15 15:59N 51°07' E 001°20'511.1
2018-Jul-15 15:30N 51°06' E 001°28'918.4
2018-Jul-15 15:00N 51°01' E 001°41'713.7
2018-Jul-15 14:30N 50°58' E 001°51'0 0.3
2018-Jul-15 14:00N 50°58' E 001°51'0 0.0
2018-Jul-15 13:30N 50°58' E 001°51'612.4
2018-Jul-15 13:00N 50°59' E 001°41'1019.7
2018-Jul-15 12:30N 51°05' E 001°29'610.3
2018-Jul-15 11:56N 51°07' E 001°20'0 0.0
2018-Jul-15 11:30N 51°07' E 001°20'0 0.0
2018-Jul-15 10:57N 51°07' E 001°20'2 4.8
2018-Jul-15 10:30N 51°07' E 001°23'1019.2
2018-Jul-15 10:00N 51°02' E 001°36'918.8
2018-Jul-15 09:31N 50°58' E 001°50'1 1.4
2018-Jul-15 09:00N 50°58' E 001°51'0 0.0
2018-Jul-15 08:30N 50°58' E 001°51'1 1.4
2018-Jul-15 08:00N 50°58' E 001°52'0 0.0
2018-Jul-15 07:29N 50°58' E 001°52'0 0.0
2018-Jul-15 06:59N 50°58' E 001°52'0 0.0
2018-Jul-15 06:29N 50°58' E 001°52'0 0.0
2018-Jul-15 05:59N 50°58' E 001°52'0 0.0
2018-Jul-15 05:26N 50°58' E 001°52'0 0.0
2018-Jul-15 04:56N 50°58' E 001°52'0 0.0
2018-Jul-15 04:29N 50°58' E 001°52'0 0.0
2018-Jul-15 03:53N 50°58' E 001°52'0 0.0
2018-Jul-15 03:29N 50°58' E 001°52'0 0.0
2018-Jul-15 02:59N 50°58' E 001°52'0 0.0
2018-Jul-15 02:26N 50°58' E 001°52'0 0.0
2018-Jul-15 01:59N 50°58' E 001°52'0 0.0
2018-Jul-15 01:29N 50°58' E 001°52'0 0.0
2018-Jul-15 00:59N 50°58' E 001°52'0 0.0
2018-Jul-15 00:29N 50°58' E 001°52'0 0.0
2018-Jul-14 23:59N 50°58' E 001°52'0 0.0
2018-Jul-14 23:29N 50°58' E 001°52'0 0.0
2018-Jul-14 22:59N 50°58' E 001°52'0 0.0
2018-Jul-14 22:29N 50°58' E 001°52'0 0.0
2018-Jul-14 21:59N 50°58' E 001°52'0 0.0
2018-Jul-14 21:29N 50°58' E 001°52'0 0.0
2018-Jul-14 20:59N 50°58' E 001°52'0 0.0
2018-Jul-14 20:29N 50°58' E 001°52'0 0.0
2018-Jul-14 19:59N 50°58' E 001°52'0 0.0
2018-Jul-14 19:29N 50°58' E 001°52'0 0.0
2018-Jul-14 18:59N 50°58' E 001°52'0 0.0
2018-Jul-14 18:29N 50°58' E 001°52'0 0.0
2018-Jul-14 17:59N 50°58' E 001°52'0 0.0
2018-Jul-14 17:29N 50°58' E 001°52'0 0.0
2018-Jul-14 17:00N 50°58' E 001°52'0 0.0
2018-Jul-14 16:30N 50°58' E 001°52'0 0.0
2018-Jul-14 16:00N 50°58' E 001°52'0 0.0
2018-Jul-14 15:30N 50°58' E 001°52'0 0.0
2018-Jul-14 15:00N 50°58' E 001°52'0 0.3
2018-Jul-14 14:30N 50°58' E 001°52'7 6.8
2018-Jul-14 13:30N 50°58' E 001°41'1019.4
2018-Jul-14 13:01N 51°03' E 001°28'611.8
2018-Jul-14 12:29N 51°07' E 001°20'0 0.0
2018-Jul-14 11:56N 51°07' E 001°20'0 0.8
2018-Jul-14 11:30N 51°07' E 001°20'2 4.3
2018-Jul-14 11:00N 51°07' E 001°23'612.6
2018-Jul-14 10:30N 51°05' E 001°32'917.8
2018-Jul-14 10:01N 50°59' E 001°43'510.9
2018-Jul-14 09:31N 50°58' E 001°52'0 0.0
2018-Jul-14 09:00N 50°58' E 001°52'3 5.2
2018-Jul-14 08:30N 50°58' E 001°48'816.5
2018-Jul-14 08:00N 50°60' E 001°35'918.3
2018-Jul-14 07:30N 51°06' E 001°24'3 4.5
2018-Jul-14 06:53N 51°07' E 001°20'0 0.7
2018-Jul-14 06:30N 51°07' E 001°20'1 2.1
2018-Jul-14 06:00N 51°07' E 001°21'713.5
2018-Jul-14 05:30N 51°04' E 001°31'713.7
2018-Jul-14 05:00N 50°60' E 001°40'714.2
2018-Jul-14 04:31N 50°58' E 001°51'1 1.6
2018-Jul-14 04:00N 50°58' E 001°52'0 0.0
2018-Jul-14 03:30N 50°58' E 001°52'0 0.0
2018-Jul-14 03:00N 50°58' E 001°52'0 0.0
2018-Jul-14 02:30N 50°58' E 001°52'0 0.0
2018-Jul-14 02:00N 50°58' E 001°52'0 0.0
2018-Jul-14 01:21N 50°58' E 001°52'0 0.0
2018-Jul-14 01:00N 50°58' E 001°52'0 0.0
2018-Jul-14 00:30N 50°58' E 001°52'0 0.0
2018-Jul-14 00:00N 50°58' E 001°52'0 0.0
2018-Jul-13 23:30N 50°58' E 001°52'0 0.0
2018-Jul-13 23:00N 50°58' E 001°52'0 0.0
2018-Jul-13 22:30N 50°58' E 001°52'0 0.0
2018-Jul-13 22:00N 50°58' E 001°52'0 0.0
2018-Jul-13 21:30N 50°58' E 001°52'0 0.0
2018-Jul-13 21:00N 50°58' E 001°52'0 0.0
2018-Jul-13 20:30N 50°58' E 001°52'0 0.0
2018-Jul-13 19:59N 50°58' E 001°52'0 0.1
2018-Jul-13 19:31N 50°58' E 001°52'0 0.4
2018-Jul-13 18:59N 50°58' E 001°52'1 2.9
2018-Jul-13 18:30N 50°58' E 001°50'816.0
2018-Jul-13 18:00N 50°60' E 001°37'918.6
2018-Jul-13 17:30N 51°05' E 001°25'4 5.6
2018-Jul-13 16:49N 51°07' E 001°20'0 0.0
2018-Jul-13 16:25N 51°07' E 001°20'1 3.6
2018-Jul-13 16:00N 51°07' E 001°22'815.2
2018-Jul-13 15:30N 51°05' E 001°34'1019.3
2018-Jul-13 15:00N 50°58' E 001°45'4 4.3
2018-Jul-13 14:00N 50°58' E 001°52'0 0.0
2018-Jul-13 13:30N 50°58' E 001°52'0 0.0
2018-Jul-13 13:00N 50°58' E 001°52'0 0.0
2018-Jul-13 12:28N 50°58' E 001°52'0 0.0
2018-Jul-13 12:00N 50°58' E 001°52'0 0.0
2018-Jul-13 11:29N 50°58' E 001°52'0 0.0
2018-Jul-13 11:00N 50°58' E 001°52'0 0.0
2018-Jul-13 10:22N 50°58' E 001°52'0 0.0
2018-Jul-13 10:00N 50°58' E 001°52'4 8.4
2018-Jul-13 09:30N 50°58' E 001°45'917.4
2018-Jul-13 09:01N 51°02' E 001°33'815.3
2018-Jul-13 08:31N 51°04' E 001°21'3 6.2
2018-Jul-13 08:00N 51°05' E 001°26'4 8.5
2018-Jul-13 07:30N 51°07' E 001°20'0 0.4
2018-Jul-13 07:00N 51°07' E 001°20'0 0.5
2018-Jul-13 06:30N 51°07' E 001°20'2 4.4
2018-Jul-13 06:00N 51°07' E 001°23'510.3
2018-Jul-13 05:30N 51°04' E 001°30'5 9.6
2018-Jul-13 05:01N 51°01' E 001°37'815.7
2018-Jul-13 04:30N 50°58' E 001°48'2 4.5
2018-Jul-13 04:00N 50°58' E 001°52'0 0.0
2018-Jul-13 03:30N 50°58' E 001°52'0 0.0
2018-Jul-13 03:00N 50°58' E 001°52'0 0.0
2018-Jul-13 02:30N 50°58' E 001°52'0 0.0
2018-Jul-13 02:00N 50°58' E 001°52'0 0.0
2018-Jul-13 01:30N 50°58' E 001°52'0 0.0
2018-Jul-13 01:00N 50°58' E 001°52'0 0.0
2018-Jul-13 00:30N 50°58' E 001°52'1 1.9
2018-Jul-13 00:00N 50°58' E 001°50'917.8
2018-Jul-12 23:31N 51°01' E 001°37'1019.8
2018-Jul-12 23:01N 51°06' E 001°23'2 4.2
2018-Jul-12 22:27N 51°07' E 001°20'0 0.1
2018-Jul-12 21:56N 51°07' E 001°20'510.6
2018-Jul-12 21:30N 51°06' E 001°27'1019.5
2018-Jul-12 21:00N 51°01' E 001°40'714.5
2018-Jul-12 20:30N 50°58' E 001°51'0 1.0
2018-Jul-12 20:00N 50°58' E 001°52'0 0.0
2018-Jul-12 19:26N 50°58' E 001°52'0 1.1
2018-Jul-12 19:00N 50°58' E 001°51'713.0
2018-Jul-12 18:30N 50°59' E 001°41'815.4
2018-Jul-12 18:00N 51°03' E 001°30'815.0
2018-Jul-12 17:30N 51°07' E 001°20'0 0.2
2018-Jul-12 16:37N 51°07' E 001°20'0 1.3
2018-Jul-12 16:30N 51°07' E 001°20'0 0.5
2018-Jul-12 15:47N 51°07' E 001°21'0 0.0
2018-Jul-12 13:07N 51°07' E 001°21'0 0.4
2018-Jul-12 13:00N 51°07' E 001°21'0 0.0
2018-Jul-12 08:00N 51°07' E 001°21'  
Track history (hours):
 
Tides and Currents Weather Stations Pressure Air Temp Water Temp Dewpoint Dewpoint Depression Visibility Wind Speed Wind Dir Waves Ship Positions

European Seaway

Operator: P & O Ferries

Last reported at 2018-Jul-22 07:00 UTC. Time now 2018-Jul-22 06:56 UTC.
Position N 51°07' E 001°20'.

Length 180 m; draft 5.5 m.

Type: Passenger vessel. MMSI: 232001040.

Date/timePositionNaut miles runAvg speedWind from/ knotsBaromVisibWave heightAir tempDewpointWater temp
2018-Jul-22 07:00N 51°07' E 001°20'1 1.6
2018-Jul-22 06:31N 51°07' E 001°20'0 0.0
2018-Jul-22 06:00N 51°07' E 001°20'1 1.7
2018-Jul-22 05:30N 51°07' E 001°21'1019.3
2018-Jul-22 05:00N 51°03' E 001°35'918.2
2018-Jul-22 04:31N 50°58' E 001°47'2 4.7
2018-Jul-22 04:01N 50°58' E 001°51'0 0.0
2018-Jul-22 03:31N 50°58' E 001°51'0 0.0
2018-Jul-22 03:01N 50°58' E 001°51'0 0.0
2018-Jul-22 02:31N 50°58' E 001°51'1 1.1
2018-Jul-22 02:01N 50°58' E 001°52'0 0.2
2018-Jul-22 01:27N 50°58' E 001°52'0 0.0
2018-Jul-22 00:54N 50°58' E 001°52'0 0.0
2018-Jul-22 00:27N 50°58' E 001°52'0 0.0
2018-Jul-22 00:00N 50°58' E 001°52'0 0.0
2018-Jul-21 23:27N 50°58' E 001°52'0 0.0
2018-Jul-21 23:00N 50°58' E 001°52'0 0.0
2018-Jul-21 22:30N 50°58' E 001°52'0 0.0
2018-Jul-21 22:00N 50°58' E 001°52'0 0.0
2018-Jul-21 21:24N 50°58' E 001°52'0 0.0
2018-Jul-21 20:57N 50°58' E 001°52'0 0.0
2018-Jul-21 20:30N 50°58' E 001°52'0 0.0
2018-Jul-21 20:00N 50°58' E 001°52'1 1.4
2018-Jul-21 19:30N 50°58' E 001°51'0 0.0
2018-Jul-21 19:00N 50°58' E 001°51'5 9.7
2018-Jul-21 18:31N 50°58' E 001°43'1019.6
2018-Jul-21 18:01N 51°03' E 001°30'714.7
2018-Jul-21 17:30N 51°07' E 001°20'0 0.0
2018-Jul-21 16:50N 51°07' E 001°20'0 1.0
2018-Jul-21 16:30N 51°07' E 001°20'611.6
2018-Jul-21 16:00N 51°05' E 001°29'1019.6
2018-Jul-21 15:30N 50°60' E 001°42'713.1
2018-Jul-21 15:00N 50°58' E 001°52'0 0.0
2018-Jul-21 14:30N 50°58' E 001°52'1212.3
2018-Jul-21 13:30N 51°00' E 001°32'918.4
2018-Jul-21 13:00N 51°07' E 001°22'1 1.4
2018-Jul-21 11:59N 51°07' E 001°20'0 0.8
2018-Jul-21 11:30N 51°07' E 001°20'2 4.4
2018-Jul-21 11:01N 51°06' E 001°23'816.2
2018-Jul-21 10:31N 51°03' E 001°35'917.6
2018-Jul-21 10:01N 50°58' E 001°46'4 7.2
2018-Jul-21 09:30N 50°58' E 001°52'0 0.0
2018-Jul-21 09:00N 50°58' E 001°52'2 4.0
2018-Jul-21 08:30N 50°58' E 001°48'918.2
2018-Jul-21 08:00N 51°01' E 001°35'1018.8
2018-Jul-21 07:30N 51°07' E 001°23'2 3.3
2018-Jul-21 06:57N 51°07' E 001°20'0 0.1
2018-Jul-21 06:29N 51°07' E 001°20'0 0.3
2018-Jul-21 06:01N 51°07' E 001°20'713.2
2018-Jul-21 05:31N 51°06' E 001°30'815.1
2018-Jul-21 05:01N 51°01' E 001°39'612.8
2018-Jul-21 04:30N 50°58' E 001°49'2 3.9
2018-Jul-21 04:00N 50°58' E 001°52'0 0.0
2018-Jul-21 03:31N 50°58' E 001°52'0 0.0
2018-Jul-21 03:00N 50°58' E 001°52'0 0.0
2018-Jul-21 02:30N 50°58' E 001°52'0 0.0
2018-Jul-21 02:00N 50°58' E 001°52'0 0.0
2018-Jul-21 01:30N 50°58' E 001°52'0 0.0
2018-Jul-21 01:01N 50°58' E 001°52'0 0.0
2018-Jul-21 00:30N 50°58' E 001°52'1 2.1
2018-Jul-21 00:01N 50°58' E 001°50'917.5
2018-Jul-20 23:31N 50°60' E 001°36'1019.7
2018-Jul-20 23:01N 51°05' E 001°23'3 5.2
2018-Jul-20 22:27N 51°07' E 001°20'0 0.0
2018-Jul-20 21:58N 51°07' E 001°20'2 3.8
2018-Jul-20 21:31N 51°07' E 001°23'1019.5
2018-Jul-20 21:01N 51°02' E 001°36'918.2
2018-Jul-20 20:31N 50°58' E 001°49'1 2.8
2018-Jul-20 20:01N 50°58' E 001°52'0 0.0
2018-Jul-20 19:30N 50°58' E 001°52'0 0.0
2018-Jul-20 19:00N 50°58' E 001°52'1 1.5
2018-Jul-20 18:31N 50°58' E 001°51'611.5
2018-Jul-20 18:00N 50°58' E 001°41'1019.5
2018-Jul-20 17:30N 51°04' E 001°29'612.2
2018-Jul-20 16:59N 51°07' E 001°20'0 0.0
2018-Jul-20 16:30N 51°07' E 001°20'2 3.2
2018-Jul-20 16:00N 51°07' E 001°23'612.5
2018-Jul-20 15:30N 51°05' E 001°32'918.3
2018-Jul-20 15:00N 50°59' E 001°43'510.0
2018-Jul-20 14:30N 50°58' E 001°51'0 0.0
2018-Jul-20 14:00N 50°58' E 001°51'0 0.0
2018-Jul-20 13:30N 50°58' E 001°51'4 7.8
2018-Jul-20 13:00N 50°58' E 001°45'917.9
2018-Jul-20 12:30N 51°02' E 001°32'917.6
2018-Jul-20 12:01N 51°06' E 001°20'1 1.5
2018-Jul-20 11:20N 51°07' E 001°20'0 0.2
2018-Jul-20 10:55N 51°07' E 001°20'513.2
2018-Jul-20 10:30N 51°06' E 001°28'918.7
2018-Jul-20 10:00N 50°60' E 001°40'714.4
2018-Jul-20 09:30N 50°58' E 001°51'0 0.1
2018-Jul-20 09:00N 50°58' E 001°51'2 4.3
2018-Jul-20 08:30N 50°58' E 001°48'816.8
2018-Jul-20 08:01N 51°00' E 001°35'918.7
2018-Jul-20 07:31N 51°06' E 001°23'2 4.7
2018-Jul-20 06:59N 51°07' E 001°20'0 0.4
2018-Jul-20 06:30N 51°07' E 001°20'3 5.9
2018-Jul-20 06:01N 51°07' E 001°25'510.8
2018-Jul-20 05:30N 51°04' E 001°32'714.4
2018-Jul-20 05:00N 50°60' E 001°41'612.2
2018-Jul-20 04:30N 50°58' E 001°51'1 1.2
2018-Jul-20 04:01N 50°58' E 001°52'0 0.0
2018-Jul-20 03:30N 50°58' E 001°52'0 0.0
2018-Jul-20 03:00N 50°58' E 001°52'0 0.0
2018-Jul-20 02:30N 50°58' E 001°52'0 0.0
2018-Jul-20 02:00N 50°58' E 001°52'0 0.0
2018-Jul-20 01:30N 50°58' E 001°52'0 0.0
2018-Jul-20 01:00N 50°58' E 001°52'0 0.0
2018-Jul-20 00:30N 50°58' E 001°52'3 6.3
2018-Jul-20 00:00N 50°58' E 001°47'815.1
2018-Jul-19 23:30N 51°01' E 001°35'1019.2
2018-Jul-19 23:00N 51°06' E 001°22'2 4.4
2018-Jul-19 22:30N 51°07' E 001°20'0 0.6
2018-Jul-19 22:00N 51°07' E 001°20'2 5.0
2018-Jul-19 21:31N 51°07' E 001°24'815.4
2018-Jul-19 21:00N 51°03' E 001°34'918.8
2018-Jul-19 20:30N 50°58' E 001°48'2 4.9
2018-Jul-19 20:01N 50°58' E 001°52'0 0.0
2018-Jul-19 19:31N 50°58' E 001°52'1 1.8
2018-Jul-19 19:00N 50°58' E 001°50'612.0
2018-Jul-19 18:30N 50°58' E 001°41'918.0
2018-Jul-19 18:00N 51°04' E 001°29'713.6
2018-Jul-19 17:30N 51°07' E 001°20'0 0.0
2018-Jul-19 16:59N 51°07' E 001°20'0 0.6
2018-Jul-19 16:29N 51°07' E 001°20'4 9.4
2018-Jul-19 16:00N 51°06' E 001°27'1019.4
2018-Jul-19 15:30N 51°00' E 001°39'815.7
2018-Jul-19 15:00N 50°58' E 001°51'0 0.2
2018-Jul-19 14:00N 50°58' E 001°52'611.3
2018-Jul-19 13:30N 50°58' E 001°43'918.2
2018-Jul-19 13:00N 51°03' E 001°30'815.8
2018-Jul-19 12:30N 51°07' E 001°20'0 0.0
2018-Jul-19 11:59N 51°07' E 001°20'0 0.6
2018-Jul-19 11:29N 51°07' E 001°20'3 5.6
2018-Jul-19 11:00N 51°07' E 001°24'815.8
2018-Jul-19 10:30N 51°03' E 001°35'918.5
2018-Jul-19 10:00N 50°58' E 001°47'3 5.3
2018-Jul-19 09:30N 50°58' E 001°52'0 0.0
2018-Jul-19 09:00N 50°58' E 001°52'3 6.7
2018-Jul-19 08:31N 50°58' E 001°46'917.6
2018-Jul-19 08:01N 51°02' E 001°34'918.9
2018-Jul-19 07:31N 51°07' E 001°21'1 1.8
2018-Jul-19 07:00N 51°07' E 001°20'0 0.2
2018-Jul-19 06:30N 51°07' E 001°20'3 6.9
2018-Jul-19 06:00N 51°07' E 001°25'613.0
2018-Jul-19 05:30N 51°04' E 001°35'815.0
2018-Jul-19 05:00N 50°59' E 001°44'5 9.5
2018-Jul-19 04:30N 50°58' E 001°51'0 0.0
2018-Jul-19 03:58N 50°58' E 001°51'0 0.0
2018-Jul-19 03:30N 50°58' E 001°51'0 0.0
2018-Jul-19 03:01N 50°58' E 001°51'0 0.0
2018-Jul-19 02:30N 50°58' E 001°51'0 0.0
2018-Jul-19 02:00N 50°58' E 001°51'0 0.0
2018-Jul-19 01:30N 50°58' E 001°51'0 0.0
2018-Jul-19 01:00N 50°58' E 001°51'0 0.0
2018-Jul-19 00:30N 50°58' E 001°51'1 1.1
2018-Jul-19 00:00N 50°58' E 001°50'714.2
2018-Jul-18 23:30N 50°59' E 001°39'816.7
2018-Jul-18 23:01N 51°04' E 001°28'612.4
2018-Jul-18 22:30N 51°07' E 001°20'0 0.0
2018-Jul-18 21:56N 51°07' E 001°20'1 2.8
2018-Jul-18 21:30N 51°07' E 001°22'1019.4
2018-Jul-18 21:00N 51°02' E 001°35'1019.2
2018-Jul-18 20:30N 50°58' E 001°49'2 3.1
2018-Jul-18 20:01N 50°58' E 001°51'0 0.0
2018-Jul-18 19:30N 50°58' E 001°51'0 0.0
2018-Jul-18 19:00N 50°58' E 001°51'2 4.2
2018-Jul-18 18:31N 50°58' E 001°48'5 9.5
2018-Jul-18 18:00N 50°59' E 001°41'1019.8
2018-Jul-18 17:30N 51°03' E 001°27'610.1
2018-Jul-18 16:56N 51°07' E 001°20'0 0.0
2018-Jul-18 16:26N 51°07' E 001°20'1 1.5
2018-Jul-18 16:00N 51°07' E 001°21'816.8
2018-Jul-18 15:30N 51°04' E 001°33'816.8
2018-Jul-18 15:00N 50°59' E 001°44'4 8.9
2018-Jul-18 14:30N 50°58' E 001°51'0 0.1
2018-Jul-18 13:30N 50°58' E 001°51'817.0
2018-Jul-18 13:01N 51°00' E 001°38'918.7
2018-Jul-18 12:30N 51°06' E 001°26'4 7.5
2018-Jul-18 11:59N 51°07' E 001°20'0 0.0
2018-Jul-18 11:30N 51°07' E 001°20'1111.0
2018-Jul-18 10:30N 51°03' E 001°36'917.7
2018-Jul-18 10:01N 50°58' E 001°48'3 5.1
2018-Jul-18 09:30N 50°58' E 001°52'0 0.0
2018-Jul-18 09:00N 50°58' E 001°52'2 3.6
2018-Jul-18 08:31N 50°58' E 001°49'816.7
2018-Jul-18 08:00N 51°00' E 001°36'918.7
2018-Jul-18 07:30N 51°06' E 001°24'3 5.7
2018-Jul-18 06:58N 51°07' E 001°20'0 0.3
2018-Jul-18 06:30N 51°07' E 001°20'2 4.8
2018-Jul-18 06:01N 51°07' E 001°24'611.6
2018-Jul-18 05:31N 51°04' E 001°31'612.6
2018-Jul-18 05:01N 51°01' E 001°40'612.1
2018-Jul-18 04:30N 50°58' E 001°49'2 3.4
2018-Jul-18 03:59N 50°58' E 001°52'0 0.0
2018-Jul-18 03:26N 50°58' E 001°52'0 0.0
2018-Jul-18 02:59N 50°58' E 001°52'0 0.0
2018-Jul-18 02:29N 50°58' E 001°52'0 0.0
2018-Jul-18 01:59N 50°58' E 001°52'0 0.0
2018-Jul-18 01:29N 50°58' E 001°52'0 0.0
2018-Jul-18 01:00N 50°58' E 001°52'1 1.5
2018-Jul-18 00:31N 50°58' E 001°51'612.6
2018-Jul-18 00:00N 50°58' E 001°40'918.8
2018-Jul-17 23:31N 51°04' E 001°28'612.6
2018-Jul-17 23:00N 51°07' E 001°20'0 0.0
2018-Jul-17 22:29N 51°07' E 001°20'0 0.6
2018-Jul-17 22:00N 51°07' E 001°20'510.8
2018-Jul-17 21:30N 51°05' E 001°28'816.2
2018-Jul-17 21:00N 51°01' E 001°39'816.1
2018-Jul-17 20:30N 50°58' E 001°51'1 1.0
2018-Jul-17 20:00N 50°58' E 001°52'0 0.0
2018-Jul-17 19:30N 50°58' E 001°52'0 0.0
2018-Jul-17 19:00N 50°58' E 001°52'2 3.7
2018-Jul-17 18:30N 50°58' E 001°49'918.5
2018-Jul-17 18:00N 51°00' E 001°35'918.7
2018-Jul-17 17:30N 51°06' E 001°23'2 3.2
2018-Jul-17 16:49N 51°07' E 001°20'0 0.1
2018-Jul-17 16:29N 51°07' E 001°20'4 7.8
2018-Jul-17 16:00N 51°07' E 001°26'612.8
2018-Jul-17 15:30N 51°03' E 001°34'917.7
2018-Jul-17 15:00N 50°58' E 001°46'3 6.5
2018-Jul-17 14:31N 50°58' E 001°51'0 0.0
2018-Jul-17 13:57N 50°58' E 001°51'0 0.0
2018-Jul-17 13:30N 50°58' E 001°51'713.4
2018-Jul-17 13:00N 50°59' E 001°40'1019.4
2018-Jul-17 12:30N 51°05' E 001°28'610.4
2018-Jul-17 11:57N 51°07' E 001°20'0 0.0
2018-Jul-17 11:27N 51°07' E 001°20'0 0.9
2018-Jul-17 11:00N 51°07' E 001°21'918.3
2018-Jul-17 10:30N 51°04' E 001°34'1019.3
2018-Jul-17 10:00N 50°58' E 001°46'3 6.8
2018-Jul-17 09:30N 50°58' E 001°52'0 0.0
2018-Jul-17 09:00N 50°58' E 001°52'2 4.4
2018-Jul-17 08:30N 50°58' E 001°48'917.4
2018-Jul-17 08:00N 51°01' E 001°35'1019.6
2018-Jul-17 07:30N 51°07' E 001°22'2 1.9
2018-Jul-17 06:38N 51°07' E 001°20'0 1.8
2018-Jul-17 06:30N 51°07' E 001°20'3 6.4
2018-Jul-17 06:00N 51°07' E 001°25'4 8.8
2018-Jul-17 05:31N 51°05' E 001°31'714.0
2018-Jul-17 05:00N 51°01' E 001°40'612.4
2018-Jul-17 04:30N 50°58' E 001°49'2 3.0
2018-Jul-17 04:00N 50°58' E 001°52'0 0.0
2018-Jul-17 03:30N 50°58' E 001°52'0 0.0
2018-Jul-17 03:00N 50°58' E 001°52'0 0.0
2018-Jul-17 02:30N 50°58' E 001°52'0 0.0
2018-Jul-17 02:00N 50°58' E 001°52'0 0.0
2018-Jul-17 01:21N 50°58' E 001°52'0 0.0
2018-Jul-17 01:00N 50°58' E 001°52'0 0.0
2018-Jul-17 00:27N 50°58' E 001°52'0 0.0
2018-Jul-16 23:30N 50°58' E 001°52'0 0.0
2018-Jul-16 23:00N 50°58' E 001°52'0 0.0
2018-Jul-16 22:30N 50°58' E 001°52'0 0.0
2018-Jul-16 22:00N 50°58' E 001°52'0 0.0
2018-Jul-16 21:30N 50°58' E 001°52'0 0.0
2018-Jul-16 21:00N 50°58' E 001°52'0 0.0
2018-Jul-16 20:30N 50°58' E 001°52'0 0.0
2018-Jul-16 20:00N 50°58' E 001°52'0 0.0
2018-Jul-16 19:30N 50°58' E 001°52'1 1.1
2018-Jul-16 19:00N 50°58' E 001°51'815.4
2018-Jul-16 18:30N 50°59' E 001°39'714.3
2018-Jul-16 18:01N 51°04' E 001°30'714.1
2018-Jul-16 17:30N 51°07' E 001°20'0 0.0
2018-Jul-16 16:57N 51°07' E 001°20'0 0.7
2018-Jul-16 16:30N 51°07' E 001°20'2 5.0
2018-Jul-16 16:00N 51°07' E 001°24'714.1
2018-Jul-16 15:31N 51°03' E 001°34'816.1
2018-Jul-16 15:01N 50°59' E 001°44'4 9.0
2018-Jul-16 14:30N 50°58' E 001°51'0 0.0
2018-Jul-16 14:00N 50°58' E 001°51'0 0.1
2018-Jul-16 13:30N 50°58' E 001°51'816.0
2018-Jul-16 13:01N 50°59' E 001°38'918.9
2018-Jul-16 12:31N 51°04' E 001°26'5 9.4
2018-Jul-16 12:00N 51°07' E 001°20'0 0.0
2018-Jul-16 11:27N 51°07' E 001°20'0 0.7
2018-Jul-16 11:00N 51°07' E 001°20'4 7.7
2018-Jul-16 10:31N 51°06' E 001°26'917.7
2018-Jul-16 10:01N 51°02' E 001°38'917.2
2018-Jul-16 09:30N 50°58' E 001°51'1 1.3
2018-Jul-16 08:58N 50°58' E 001°52'0 0.0
2018-Jul-16 08:28N 50°58' E 001°52'0 0.0
2018-Jul-16 07:58N 50°58' E 001°52'0 0.0
2018-Jul-16 07:22N 50°58' E 001°52'0 0.0
2018-Jul-16 06:58N 50°58' E 001°52'0 0.0
2018-Jul-16 06:28N 50°58' E 001°52'0 0.0
2018-Jul-16 05:58N 50°58' E 001°52'0 0.0
2018-Jul-16 05:25N 50°58' E 001°52'0 0.0
2018-Jul-16 04:55N 50°58' E 001°52'0 0.0
2018-Jul-16 04:28N 50°58' E 001°52'0 0.0
2018-Jul-16 03:58N 50°58' E 001°52'0 0.0
2018-Jul-16 03:31N 50°58' E 001°52'0 0.0
2018-Jul-16 02:58N 50°58' E 001°52'0 0.0
2018-Jul-16 02:31N 50°58' E 001°52'0 0.0
2018-Jul-16 02:01N 50°58' E 001°52'0 0.0
2018-Jul-16 01:28N 50°58' E 001°52'0 0.0
2018-Jul-16 01:01N 50°58' E 001°52'0 0.0
2018-Jul-16 00:31N 50°58' E 001°52'0 0.0
2018-Jul-15 23:58N 50°58' E 001°52'0 0.0
2018-Jul-15 23:28N 50°58' E 001°52'0 0.0
2018-Jul-15 22:58N 50°58' E 001°52'0 0.0
2018-Jul-15 22:25N 50°58' E 001°52'0 0.0
2018-Jul-15 22:01N 50°58' E 001°52'0 0.0
2018-Jul-15 21:25N 50°58' E 001°52'0 0.0
2018-Jul-15 21:01N 50°58' E 001°52'0 0.0
2018-Jul-15 20:28N 50°58' E 001°52'0 0.0
2018-Jul-15 20:00N 50°58' E 001°52'0 0.0
2018-Jul-15 19:30N 50°58' E 001°52'0 0.0
2018-Jul-15 19:00N 50°58' E 001°52'0 0.4
2018-Jul-15 18:30N 50°58' E 001°51'612.8
2018-Jul-15 18:00N 50°58' E 001°41'918.2
2018-Jul-15 17:30N 51°03' E 001°29'713.9
2018-Jul-15 17:00N 51°07' E 001°20'0 0.0
2018-Jul-15 16:28N 51°07' E 001°20'0 0.1
2018-Jul-15 15:59N 51°07' E 001°20'511.1
2018-Jul-15 15:30N 51°06' E 001°28'918.4
2018-Jul-15 15:00N 51°01' E 001°41'713.7
2018-Jul-15 14:30N 50°58' E 001°51'0 0.3
2018-Jul-15 14:00N 50°58' E 001°51'0 0.0
2018-Jul-15 13:30N 50°58' E 001°51'612.4
2018-Jul-15 13:00N 50°59' E 001°41'1019.7
2018-Jul-15 12:30N 51°05' E 001°29'610.3
2018-Jul-15 11:56N 51°07' E 001°20'0 0.0
2018-Jul-15 11:30N 51°07' E 001°20'0 0.0
2018-Jul-15 10:57N 51°07' E 001°20'2 4.8
2018-Jul-15 10:30N 51°07' E 001°23'1019.2
2018-Jul-15 10:00N 51°02' E 001°36'918.8
2018-Jul-15 09:31N 50°58' E 001°50'1 1.4
2018-Jul-15 09:00N 50°58' E 001°51'0 0.0
2018-Jul-15 08:30N 50°58' E 001°51'1 1.4
2018-Jul-15 08:00N 50°58' E 001°52'0 0.0
2018-Jul-15 07:29N 50°58' E 001°52'0 0.0
2018-Jul-15 06:59N 50°58' E 001°52'0 0.0
2018-Jul-15 06:29N 50°58' E 001°52'0 0.0
2018-Jul-15 05:59N 50°58' E 001°52'0 0.0
2018-Jul-15 05:26N 50°58' E 001°52'0 0.0
2018-Jul-15 04:56N 50°58' E 001°52'0 0.0
2018-Jul-15 04:29N 50°58' E 001°52'0 0.0
2018-Jul-15 03:53N 50°58' E 001°52'0 0.0
2018-Jul-15 03:29N 50°58' E 001°52'0 0.0
2018-Jul-15 02:59N 50°58' E 001°52'0 0.0
2018-Jul-15 02:26N 50°58' E 001°52'0 0.0
2018-Jul-15 01:59N 50°58' E 001°52'0 0.0
2018-Jul-15 01:29N 50°58' E 001°52'0 0.0
2018-Jul-15 00:59N 50°58' E 001°52'0 0.0
2018-Jul-15 00:29N 50°58' E 001°52'0 0.0
2018-Jul-14 23:59N 50°58' E 001°52'0 0.0
2018-Jul-14 23:29N 50°58' E 001°52'0 0.0
2018-Jul-14 22:59N 50°58' E 001°52'0 0.0
2018-Jul-14 22:29N 50°58' E 001°52'0 0.0
2018-Jul-14 21:59N 50°58' E 001°52'0 0.0
2018-Jul-14 21:29N 50°58' E 001°52'0 0.0
2018-Jul-14 20:59N 50°58' E 001°52'0 0.0
2018-Jul-14 20:29N 50°58' E 001°52'0 0.0
2018-Jul-14 19:59N 50°58' E 001°52'0 0.0
2018-Jul-14 19:29N 50°58' E 001°52'0 0.0
2018-Jul-14 18:59N 50°58' E 001°52'0 0.0
2018-Jul-14 18:29N 50°58' E 001°52'0 0.0
2018-Jul-14 17:59N 50°58' E 001°52'0 0.0
2018-Jul-14 17:29N 50°58' E 001°52'0 0.0
2018-Jul-14 17:00N 50°58' E 001°52'0 0.0
2018-Jul-14 16:30N 50°58' E 001°52'0 0.0
2018-Jul-14 16:00N 50°58' E 001°52'0 0.0
2018-Jul-14 15:30N 50°58' E 001°52'0 0.0
2018-Jul-14 15:00N 50°58' E 001°52'0 0.3
2018-Jul-14 14:30N 50°58' E 001°52'7 6.8
2018-Jul-14 13:30N 50°58' E 001°41'1019.4
2018-Jul-14 13:01N 51°03' E 001°28'611.8
2018-Jul-14 12:29N 51°07' E 001°20'0 0.0
2018-Jul-14 11:56N 51°07' E 001°20'0 0.8
2018-Jul-14 11:30N 51°07' E 001°20'2 4.3
2018-Jul-14 11:00N 51°07' E 001°23'612.6
2018-Jul-14 10:30N 51°05' E 001°32'917.8
2018-Jul-14 10:01N 50°59' E 001°43'510.9
2018-Jul-14 09:31N 50°58' E 001°52'0 0.0
2018-Jul-14 09:00N 50°58' E 001°52'3 5.2
2018-Jul-14 08:30N 50°58' E 001°48'816.5
2018-Jul-14 08:00N 50°60' E 001°35'918.3
2018-Jul-14 07:30N 51°06' E 001°24'3 4.5
2018-Jul-14 06:53N 51°07' E 001°20'0 0.7
2018-Jul-14 06:30N 51°07' E 001°20'1 2.1
2018-Jul-14 06:00N 51°07' E 001°21'713.5
2018-Jul-14 05:30N 51°04' E 001°31'713.7
2018-Jul-14 05:00N 50°60' E 001°40'714.2
2018-Jul-14 04:31N 50°58' E 001°51'1 1.6
2018-Jul-14 04:00N 50°58' E 001°52'0 0.0
2018-Jul-14 03:30N 50°58' E 001°52'0 0.0
2018-Jul-14 03:00N 50°58' E 001°52'0 0.0
2018-Jul-14 02:30N 50°58' E 001°52'0 0.0
2018-Jul-14 02:00N 50°58' E 001°52'0 0.0
2018-Jul-14 01:21N 50°58' E 001°52'0 0.0
2018-Jul-14 01:00N 50°58' E 001°52'0 0.0
2018-Jul-14 00:30N 50°58' E 001°52'0 0.0
2018-Jul-14 00:00N 50°58' E 001°52'0 0.0
2018-Jul-13 23:30N 50°58' E 001°52'0 0.0
2018-Jul-13 23:00N 50°58' E 001°52'0 0.0
2018-Jul-13 22:30N 50°58' E 001°52'0 0.0
2018-Jul-13 22:00N 50°58' E 001°52'0 0.0
2018-Jul-13 21:30N 50°58' E 001°52'0 0.0
2018-Jul-13 21:00N 50°58' E 001°52'0 0.0
2018-Jul-13 20:30N 50°58' E 001°52'0 0.0
2018-Jul-13 19:59N 50°58' E 001°52'0 0.1
2018-Jul-13 19:31N 50°58' E 001°52'0 0.4
2018-Jul-13 18:59N 50°58' E 001°52'1 2.9
2018-Jul-13 18:30N 50°58' E 001°50'816.0
2018-Jul-13 18:00N 50°60' E 001°37'918.6
2018-Jul-13 17:30N 51°05' E 001°25'4 5.6
2018-Jul-13 16:49N 51°07' E 001°20'0 0.0
2018-Jul-13 16:25N 51°07' E 001°20'1 3.6
2018-Jul-13 16:00N 51°07' E 001°22'815.2
2018-Jul-13 15:30N 51°05' E 001°34'1019.3
2018-Jul-13 15:00N 50°58' E 001°45'4 4.3
2018-Jul-13 14:00N 50°58' E 001°52'0 0.0
2018-Jul-13 13:30N 50°58' E 001°52'0 0.0
2018-Jul-13 13:00N 50°58' E 001°52'0 0.0
2018-Jul-13 12:28N 50°58' E 001°52'0 0.0
2018-Jul-13 12:00N 50°58' E 001°52'0 0.0
2018-Jul-13 11:29N 50°58' E 001°52'0 0.0
2018-Jul-13 11:00N 50°58' E 001°52'0 0.0
2018-Jul-13 10:22N 50°58' E 001°52'0 0.0
2018-Jul-13 10:00N 50°58' E 001°52'4 8.4
2018-Jul-13 09:30N 50°58' E 001°45'917.4
2018-Jul-13 09:01N 51°02' E 001°33'815.3
2018-Jul-13 08:31N 51°04' E 001°21'3 6.2
2018-Jul-13 08:00N 51°05' E 001°26'4 8.5
2018-Jul-13 07:30N 51°07' E 001°20'0 0.4
2018-Jul-13 07:00N 51°07' E 001°20'0 0.5
2018-Jul-13 06:30N 51°07' E 001°20'2 4.4
2018-Jul-13 06:00N 51°07' E 001°23'510.3
2018-Jul-13 05:30N 51°04' E 001°30'5 9.6
2018-Jul-13 05:01N 51°01' E 001°37'815.7
2018-Jul-13 04:30N 50°58' E 001°48'2 4.5
2018-Jul-13 04:00N 50°58' E 001°52'0 0.0
2018-Jul-13 03:30N 50°58' E 001°52'0 0.0
2018-Jul-13 03:00N 50°58' E 001°52'0 0.0
2018-Jul-13 02:30N 50°58' E 001°52'0 0.0
2018-Jul-13 02:00N 50°58' E 001°52'0 0.0
2018-Jul-13 01:30N 50°58' E 001°52'0 0.0
2018-Jul-13 01:00N 50°58' E 001°52'0 0.0
2018-Jul-13 00:30N 50°58' E 001°52'1 1.9
2018-Jul-13 00:00N 50°58' E 001°50'917.8
2018-Jul-12 23:31N 51°01' E 001°37'1019.8
2018-Jul-12 23:01N 51°06' E 001°23'2 4.2
2018-Jul-12 22:27N 51°07' E 001°20'0 0.1
2018-Jul-12 21:56N 51°07' E 001°20'510.6
2018-Jul-12 21:30N 51°06' E 001°27'1019.5
2018-Jul-12 21:00N 51°01' E 001°40'714.5
2018-Jul-12 20:30N 50°58' E 001°51'0 1.0
2018-Jul-12 20:00N 50°58' E 001°52'0 0.0
2018-Jul-12 19:26N 50°58' E 001°52'0 1.1
2018-Jul-12 19:00N 50°58' E 001°51'713.0
2018-Jul-12 18:30N 50°59' E 001°41'815.4
2018-Jul-12 18:00N 51°03' E 001°30'815.0
2018-Jul-12 17:30N 51°07' E 001°20'0 0.2
2018-Jul-12 16:37N 51°07' E 001°20'0 1.3
2018-Jul-12 16:30N 51°07' E 001°20'0 0.5
2018-Jul-12 15:47N 51°07' E 001°21'0 0.0
2018-Jul-12 13:07N 51°07' E 001°21'0 0.4
2018-Jul-12 13:00N 51°07' E 001°21'0 0.0
2018-Jul-12 08:00N 51°07' E 001°21'  

Dump ship's entire track history